Glusburn, United Kingdom
Current Conditions -  °F | °C
As of 4:20 AM on Tuesday 21 Oct 2014 (Local Time) from EGNM Reporting Station
Rain Showers Rain Showers  
Wind Chill: 52°   Ceiling: 1000
Heat Index: 52°   Visibility: 6mi
Dew Point: 50°   Wind: 21mph
Humidity: 94%   Direction: 210°SSW
Pressure: 29.35"   Gusts: 33mph
Location:  53.9°N, 2°W
Report Text: EGNM 210320Z 21018G29KT 180V250 9999 -SHRA BKN010 11/10 Q0994
Loading
Personal Weather Stations






























Interactive Weather Map
Tropical Storm Tracking
New forecast layout! Learn more

10-Day Weather Forecast

Advertisements
Track Severe Weather on mobile